Terminal Aerodrome Forecast
Issued by NWS

Home | Current Version | Previous Version | Text Only | Print | Product List | Glossary On
Versions: 1 2 3 4 5 6 7 8 9 10 11 12 13 14 15 16 17 18 19 20 21 22 23 24 25
000
FTUS41 KPBZ 300700 AAA
TAFHLG
TAF AMD
KHLG 300747Z 3008/3106 27011KT 4SM -SHSN BKN015 OVC025
      TEMPO 3008/3009 1SM -SHSN BKN008 OVC015
     FM300900 29010KT P6SM -SHSN OVC015
     FM301400 31012G24KT P6SM OVC020
     FM310300 29011KT P6SM SCT020=

USA.gov is the U.S. government's official web portal to all federal, state and local government web resources and services.